Time;durP1;ratioP1;P1;durP2;ratioP2;P2;SDS_P1;SDS_P2;PMS_P1;PMS_P2;Temp;Humidity;BMP_temperature;BMP_pressure;BME280_temperature;BME280_humidity;BME280_pressure;Samples;Min_cycle;Max_cycle;Signal;HPM_P1;HPM_P2
2021/03/08 00:00:34;;;;;;;29.38;17.73;;;;;;;6.39;54.35;100381.88;5014980;28;20053;-84
2021/03/08 00:03:02;;;;;;;32.95;16.70;;;;;;;6.43;54.08;100384.41;5015610;28;20049;-85
2021/03/08 00:05:31;;;;;;;32.55;17.00;;;;;;;6.43;53.92;100385.25;5020992;28;20046;-86
2021/03/08 00:07:57;;;;;;;32.47;17.38;;;;;;;6.44;53.89;100383.50;5033484;28;20048;-85
2021/03/08 00:10:23;;;;;;;29.38;16.98;;;;;;;6.45;54.16;100385.22;5014383;28;20054;-86
2021/03/08 00:12:50;;;;;;;29.85;17.02;;;;;;;6.46;54.09;100387.78;5014014;28;20054;-86
2021/03/08 00:15:19;;;;;;;28.20;16.52;;;;;;;6.45;54.21;100383.47;5014321;28;20057;-86
2021/03/08 00:17:46;;;;;;;34.20;16.95;;;;;;;6.46;54.32;100386.91;5014087;28;20120;-86
2021/03/08 00:20:16;;;;;;;27.05;15.52;;;;;;;6.45;54.52;100388.69;5013906;28;20509;-85
2021/03/08 00:22:43;;;;;;;32.33;17.40;;;;;;;6.46;54.25;100385.19;5016207;28;20077;-86
2021/03/08 00:25:12;;;;;;;33.40;18.27;;;;;;;6.46;54.64;100381.69;5033252;28;20050;-84
2021/03/08 00:27:38;;;;;;;28.55;15.57;;;;;;;6.45;54.40;100380.84;5034648;28;20060;-85
2021/03/08 00:30:07;;;;;;;32.70;17.67;;;;;;;6.42;54.87;100378.31;5033999;28;20054;-85
2021/03/08 00:32:34;;;;;;;35.45;17.23;;;;;;;6.43;54.33;100392.28;5033641;28;20136;-84
2021/03/08 00:35:00;;;;;;;31.20;16.48;;;;;;;6.42;54.50;100377.50;5033556;28;20068;-84
2021/03/08 00:37:31;;;;;;;33.30;16.27;;;;;;;6.43;54.41;100392.28;5023733;28;20046;-85
2021/03/08 00:40:04;;;;;;;31.23;17.15;;;;;;;6.39;55.65;100384.50;5014048;28;20057;-85
2021/03/08 00:42:30;;;;;;;28.65;16.65;;;;;;;6.41;54.52;100384.47;5013815;28;20104;-84
2021/03/08 00:44:57;;;;;;;31.48;17.58;;;;;;;6.42;54.83;100387.94;5014680;28;20060;-85
2021/03/08 00:47:24;;;;;;;30.05;16.40;;;;;;;6.41;54.73;100376.63;5014794;28;20065;-84
2021/03/08 00:49:50;;;;;;;31.05;17.05;;;;;;;6.43;54.74;100387.03;5015015;28;20123;-84
2021/03/08 00:52:19;;;;;;;31.48;16.35;;;;;;;6.42;54.68;100374.88;5015714;28;20049;-85
2021/03/08 00:54:45;;;;;;;30.95;16.60;;;;;;;6.42;54.79;100369.63;5014584;28;20057;-84
2021/03/08 00:57:11;;;;;;;34.05;16.67;;;;;;;6.42;55.07;100370.47;5014667;28;20053;-85
2021/03/08 00:59:37;;;;;;;30.67;15.85;;;;;;;6.45;55.37;100374.75;5013593;28;20104;-84
2021/03/08 01:02:05;;;;;;;26.73;16.33;;;;;;;6.45;55.23;100377.38;5014212;28;20054;-84
2021/03/08 01:04:31;;;;;;;28.48;16.30;;;;;;;6.46;55.05;100373.84;5059449;22;20076;-82
2021/03/08 01:06:58;;;;;;;29.55;16.98;;;;;;;6.47;55.19;100373.81;5014625;28;20050;-82
2021/03/08 01:09:25;;;;;;;29.00;16.58;;;;;;;6.50;55.14;100376.34;5013456;28;20061;-82
2021/03/08 01:11:51;;;;;;;28.92;16.10;;;;;;;6.49;55.10;100374.63;4995939;28;20054;-82
2021/03/08 01:14:17;;;;;;;29.67;17.02;;;;;;;6.52;55.30;100373.69;5027105;28;20053;-82
2021/03/08 01:16:43;;;;;;;27.23;15.85;;;;;;;6.53;55.39;100364.94;5016190;28;20060;-82
2021/03/08 01:19:09;;;;;;;31.75;17.27;;;;;;;6.56;55.43;100372.69;5033610;28;20491;-82
2021/03/08 01:21:35;;;;;;;36.75;17.50;;;;;;;6.56;55.49;100362.22;5033896;28;20393;-82
2021/03/08 01:24:02;;;;;;;28.92;16.98;;;;;;;6.58;55.40;100367.41;5030486;28;20045;-82
2021/03/08 01:26:28;;;;;;;27.73;16.38;;;;;;;6.58;55.15;100360.41;4996382;28;20046;-82
2021/03/08 01:28:54;;;;;;;30.40;16.88;;;;;;;6.60;55.07;100360.34;5014152;28;20073;-82
2021/03/08 01:31:20;;;;;;;30.05;17.23;;;;;;;6.60;55.59;100360.34;5013867;28;20049;-82
2021/03/08 01:33:50;;;;;;;34.08;16.30;;;;;;;6.59;55.14;100356.03;5013447;28;20081;-82
2021/03/08 01:36:18;;;;;;;27.77;16.38;;;;;;;6.59;55.21;100356.91;5014190;28;20045;-82
2021/03/08 01:38:45;;;;;;;26.40;16.25;;;;;;;6.59;55.38;100353.44;4996502;28;20042;-82
2021/03/08 01:41:11;;;;;;;31.48;16.58;;;;;;;6.58;55.28;100349.94;5026683;28;20075;-82
2021/03/08 01:43:38;;;;;;;33.15;16.75;;;;;;;6.59;55.65;100359.53;5033573;28;20053;-82
2021/03/08 01:46:04;;;;;;;31.20;16.58;;;;;;;6.58;55.53;100352.56;5033028;28;20046;-82
2021/03/08 01:48:30;;;;;;;28.27;16.63;;;;;;;6.56;55.69;100357.00;5033232;28;20041;-82
2021/03/08 01:50:57;;;;;;;30.92;16.13;;;;;;;6.56;55.69;100358.75;5033654;28;20179;-81
2021/03/08 01:53:26;;;;;;;27.02;16.38;;;;;;;6.52;56.34;100355.38;5033310;28;20049;-81
2021/03/08 01:55:53;;;;;;;24.33;14.77;;;;;;;6.53;55.96;100353.63;5010204;28;20060;-82
2021/03/08 01:58:20;;;;;;;36.75;16.35;;;;;;;6.50;55.85;100349.31;5013612;28;20056;-82
2021/03/08 02:00:46;;;;;;;27.27;15.80;;;;;;;6.48;56.00;100343.28;5013809;28;20054;-82
2021/03/08 02:03:12;;;;;;;26.98;15.85;;;;;;;6.46;56.23;100339.84;5013248;28;20050;-82
2021/03/08 02:05:42;;;;;;;25.00;15.73;;;;;;;6.44;56.55;100336.44;4996124;28;20104;-82
2021/03/08 02:08:11;;;;;;;27.67;14.40;;;;;;;6.41;56.64;100334.78;5013814;28;20124;-82
2021/03/08 02:10:40;;;;;;;29.55;16.70;;;;;;;6.41;56.54;100337.38;5013622;28;20045;-82
2021/03/08 02:13:24;;;;;;;26.10;15.45;;;;;;;6.37;57.36;100328.78;5028465;28;20054;-83
2021/03/08 02:16:03;;;;;;;31.15;15.85;;;;;;;6.35;57.45;100330.59;5000536;28;20563;-82
2021/03/08 02:18:42;;;;;;;29.33;15.30;;;;;;;6.36;57.84;100326.22;5013323;28;20085;-82
2021/03/08 02:21:39;;;;;;;26.77;14.32;;;;;;;6.35;58.00;100330.59;5013663;28;20420;-82
2021/03/08 02:24:26;;;;;;;24.83;14.73;;;;;;;6.37;57.92;100327.94;5014414;28;20504;-82
2021/03/08 02:26:58;;;;;;;26.05;15.38;;;;;;;6.40;56.81;100325.22;5000017;28;20049;-82
2021/03/08 02:29:39;;;;;;;29.33;15.63;;;;;;;6.37;58.06;100323.56;5000934;28;20046;-82
2021/03/08 02:32:10;;;;;;;25.45;14.85;;;;;;;6.38;57.50;100325.28;5017278;28;20062;-82
2021/03/08 02:34:47;;;;;;;27.70;15.90;;;;;;;6.37;58.00;100322.69;5016978;28;20555;-82
2021/03/08 02:37:20;;;;;;;29.92;15.85;;;;;;;6.36;57.92;100327.06;4999772;28;20042;-82
2021/03/08 02:39:50;;;;;;;30.23;16.10;;;;;;;6.36;57.33;100321.81;5017325;28;20053;-82
2021/03/08 02:42:23;;;;;;;31.35;17.17;;;;;;;6.35;57.94;100330.59;5027971;28;20065;-82
2021/03/08 02:44:54;;;;;;;28.73;16.80;;;;;;;6.36;57.17;100324.44;5036421;28;20132;-82
2021/03/08 02:47:23;;;;;;;33.15;15.88;;;;;;;6.36;57.44;100326.22;5037220;28;20052;-82
2021/03/08 02:49:53;;;;;;;31.77;17.30;;;;;;;6.35;57.56;100325.34;5036481;28;20053;-82
2021/03/08 02:52:22;;;;;;;39.47;17.10;;;;;;;6.35;57.72;100324.50;5036337;28;20053;-82
2021/03/08 02:54:53;;;;;;;35.25;17.90;;;;;;;6.36;58.56;100331.44;5036316;28;20049;-83
2021/03/08 02:57:32;;;;;;;32.65;17.95;;;;;;;6.34;58.79;100325.41;5030927;28;20037;-82
2021/03/08 03:00:01;;;;;;;28.63;16.70;;;;;;;6.37;57.62;100325.31;5016906;28;20049;-82
2021/03/08 03:02:27;;;;;;;28.38;16.67;;;;;;;6.37;57.82;100320.94;5016520;28;20492;-82
2021/03/08 03:04:56;;;;;;;30.48;16.48;;;;;;;6.37;57.97;100323.56;5016292;28;20500;-82
2021/03/08 03:07:23;;;;;;;29.60;16.88;;;;;;;6.39;57.94;100318.25;5016278;28;20054;-82
2021/03/08 03:09:51;;;;;;;32.22;18.08;;;;;;;6.39;58.27;100320.88;5016688;28;20050;-82
2021/03/08 03:12:18;;;;;;;34.22;17.88;;;;;;;6.42;58.03;100327.81;5016090;28;20049;-83
2021/03/08 03:14:46;;;;;;;30.58;16.77;;;;;;;6.42;58.17;100322.56;5016374;28;20050;-82
2021/03/08 03:17:15;;;;;;;34.95;17.35;;;;;;;6.43;58.42;100326.88;5017673;28;20050;-83
2021/03/08 03:19:47;;;;;;;33.50;16.98;;;;;;;6.45;58.69;100327.69;5035258;28;20054;-82
2021/03/08 03:22:13;;;;;;;26.77;16.17;;;;;;;6.47;58.08;100328.50;5017659;28;20050;-82
2021/03/08 03:24:40;;;;;;;29.02;15.35;;;;;;;6.48;58.12;100331.09;5015249;28;20050;-83
2021/03/08 03:27:09;;;;;;;37.70;17.10;;;;;;;6.49;58.17;100327.56;5015052;28;20500;-83
2021/03/08 03:29:38;;;;;;;31.80;16.33;;;;;;;6.51;58.70;100327.50;4998604;28;20054;-82
2021/03/08 03:32:05;;;;;;;27.95;15.50;;;;;;;6.54;58.13;100322.16;5015913;28;20079;-82
2021/03/08 03:34:32;;;;;;;30.52;15.52;;;;;;;6.56;58.41;100325.59;5016535;28;20504;-82
2021/03/08 03:36:59;;;;;;;34.53;18.30;;;;;;;6.57;58.30;100322.06;4997745;28;20057;-82
2021/03/08 03:39:25;;;;;;;29.23;16.60;;;;;;;6.58;58.26;100321.16;4998609;28;20065;-82
2021/03/08 03:41:51;;;;;;;24.33;14.82;;;;;;;6.59;58.13;100320.28;5015860;28;20053;-83
2021/03/08 03:44:17;;;;;;;31.27;16.35;;;;;;;6.60;58.31;100324.59;5015577;28;20397;-83
2021/03/08 03:46:46;;;;;;;27.08;16.20;;;;;;;6.61;58.66;100325.44;5015959;28;20068;-82
2021/03/08 03:49:18;;;;;;;30.40;16.90;;;;;;;6.62;59.46;100327.19;5016469;28;20057;-82
2021/03/08 03:51:45;;;;;;;29.60;16.50;;;;;;;6.66;58.62;100334.03;5014835;28;20053;-82
2021/03/08 03:54:12;;;;;;;30.33;16.05;;;;;;;6.69;58.61;100335.69;5015485;28;20049;-83
2021/03/08 03:57:06;;;;;;;22.65;12.27;;;;;;;6.66;59.29;100336.66;5015268;28;20420;-83
2021/03/08 03:59:46;;;;;;;22.33;11.95;;;;;;;6.67;59.18;100340.09;5013480;28;20080;-83
2021/03/08 04:02:22;;;;;;;26.83;12.10;;;;;;;6.67;58.67;100335.72;5014419;28;20068;-83
2021/03/08 04:04:51;;;;;;;24.08;11.45;;;;;;;6.67;57.99;100343.59;5015024;28;20060;-82
2021/03/08 04:07:19;;;;;;;28.63;11.93;;;;;;;6.67;57.93;100347.94;5015414;28;20452;-83
2021/03/08 04:09:49;;;;;;;23.77;11.40;;;;;;;6.65;58.34;100353.22;5015476;28;20081;-83
2021/03/08 04:12:19;;;;;;;26.20;10.75;;;;;;;6.64;58.39;100348.91;5015309;28;20415;-83
2021/03/08 04:14:50;;;;;;;24.83;12.50;;;;;;;6.64;58.08;100352.38;5014989;28;20053;-82
2021/03/08 04:17:16;;;;;;;21.65;10.70;;;;;;;6.63;57.89;100355.91;5014838;28;20049;-82
2021/03/08 04:19:44;;;;;;;26.02;10.50;;;;;;;6.63;58.13;100361.16;5015098;28;20045;-83
2021/03/08 04:22:12;;;;;;;27.30;12.23;;;;;;;6.63;57.91;100362.88;5014969;28;20489;-83
2021/03/08 04:24:41;;;;;;;22.00;10.88;;;;;;;6.64;58.11;100369.81;4997562;28;20149;-83
2021/03/08 04:27:11;;;;;;;21.00;10.45;;;;;;;6.62;58.26;100375.09;5014987;28;20440;-83
2021/03/08 04:29:39;;;;;;;25.17;11.00;;;;;;;6.62;58.08;100369.88;5017472;28;20049;-82
2021/03/08 04:32:15;;;;;;;22.10;9.65;;;;;;;6.61;57.95;100373.41;5030848;28;20095;-83
2021/03/08 04:34:42;;;;;;;19.95;10.00;;;;;;;6.59;57.92;100376.97;5033563;28;20080;-82
2021/03/08 04:37:08;;;;;;;18.27;8.82;;;;;;;6.56;57.80;100375.31;5034549;28;20049;-83
2021/03/08 04:39:37;;;;;;;24.85;8.98;;;;;;;6.53;58.42;100370.16;5034874;28;20058;-82
2021/03/08 04:42:08;;;;;;;17.42;7.88;;;;;;;6.52;58.24;100384.16;5034466;28;20045;-83
2021/03/08 04:44:35;;;;;;;19.27;8.45;;;;;;;6.53;58.11;100385.84;5033992;28;20060;-82
2021/03/08 04:47:03;;;;;;;17.92;7.53;;;;;;;6.53;58.31;100393.69;5015600;28;20045;-83
2021/03/08 04:49:32;;;;;;;19.75;7.38;;;;;;;6.53;58.50;100387.63;5034465;28;20397;-83
2021/03/08 04:52:00;;;;;;;15.75;7.38;;;;;;;6.53;58.16;100390.25;5016930;28;20057;-83
2021/03/08 04:54:27;;;;;;;15.63;7.15;;;;;;;6.52;58.29;100386.75;5033999;28;20419;-82
2021/03/08 04:56:55;;;;;;;16.60;6.43;;;;;;;6.50;58.16;100386.81;5034367;28;20056;-83
2021/03/08 04:59:24;;;;;;;15.10;6.28;;;;;;;6.50;58.69;100394.66;5033980;28;20499;-83
2021/03/08 05:01:53;;;;;;;13.45;6.78;;;;;;;6.50;58.59;100388.53;5026289;28;20056;-82
2021/03/08 05:04:22;;;;;;;15.18;6.57;;;;;;;6.50;58.28;100389.41;5013917;28;20440;-82
2021/03/08 05:06:49;;;;;;;15.10;6.32;;;;;;;6.51;58.23;100388.50;5014071;28;20049;-82
2021/03/08 05:09:16;;;;;;;15.13;6.53;;;;;;;6.50;58.16;100384.19;5013991;28;20057;-81
2021/03/08 05:11:44;;;;;;;13.70;6.10;;;;;;;6.53;58.82;100390.25;4996472;28;20049;-83
2021/03/08 05:14:14;;;;;;;15.25;6.15;;;;;;;6.53;58.81;100390.25;5013780;28;20447;-82
2021/03/08 05:16:45;;;;;;;16.13;6.47;;;;;;;6.55;59.04;100393.66;5015876;28;20046;-82
2021/03/08 05:19:13;;;;;;;16.90;5.80;;;;;;;6.57;58.24;100386.59;5014168;28;20053;-83
2021/03/08 05:21:39;;;;;;;15.60;6.18;;;;;;;6.59;58.36;100393.53;5014254;28;20050;-83
2021/03/08 05:24:06;;;;;;;18.63;7.35;;;;;;;6.59;58.44;100398.75;5013865;28;20426;-82
2021/03/08 05:26:34;;;;;;;16.25;6.47;;;;;;;6.59;58.07;100401.38;5014246;28;20412;-83
2021/03/08 05:29:01;;;;;;;17.20;6.43;;;;;;;6.59;58.22;100403.13;5013839;28;20046;-82
2021/03/08 05:31:30;;;;;;;14.60;6.25;;;;;;;6.59;58.35;100404.00;5014285;28;20049;-83
2021/03/08 05:34:01;;;;;;;12.93;6.05;;;;;;;6.58;58.88;100407.50;5014716;28;20058;-82
2021/03/08 05:36:27;;;;;;;15.82;5.75;;;;;;;6.59;58.54;100408.34;5014316;28;20054;-83
2021/03/08 05:38:54;;;;;;;14.63;5.35;;;;;;;6.59;58.14;100417.06;5013811;28;20049;-83
2021/03/08 05:41:30;;;;;;;13.73;5.22;;;;;;;6.57;58.59;100413.63;5013819;28;20058;-83
2021/03/08 05:44:03;;;;;;;14.20;5.55;;;;;;;6.57;58.37;100410.16;5013687;28;20050;-82
2021/03/08 05:46:54;;;;;;;11.15;5.18;;;;;;;6.55;59.27;100417.19;5015014;28;20132;-83
2021/03/08 05:49:45;;;;;;;12.20;4.88;;;;;;;6.54;58.98;100421.56;5013785;28;20484;-83
2021/03/08 05:52:42;;;;;;;10.77;4.65;;;;;;;6.50;58.99;100415.56;5013615;28;20057;-83
2021/03/08 05:55:31;;;;;;;11.60;4.80;;;;;;;6.51;58.48;100429.50;5013599;28;20054;-84
2021/03/08 05:58:24;;;;;;;12.90;4.43;;;;;;;6.51;57.79;100429.50;4999995;28;20042;-84
2021/03/08 06:01:05;;;;;;;14.23;5.80;;;;;;;6.46;59.06;100427.03;4987273;28;20057;-84
2021/03/08 06:04:09;;;;;;;14.38;5.07;;;;;;;6.44;59.14;100426.22;5029051;28;20112;-83
2021/03/08 06:06:56;;;;;;;15.60;4.47;;;;;;;6.46;58.94;100428.78;5037465;28;20064;-83
2021/03/08 06:09:25;;;;;;;7.72;3.97;;;;;;;6.48;58.30;100429.59;5020069;28;20041;-83
2021/03/08 06:12:00;;;;;;;10.48;4.07;;;;;;;6.45;58.82;100433.16;5037348;28;20128;-83
2021/03/08 06:14:33;;;;;;;12.55;4.55;;;;;;;6.45;58.99;100433.16;5037136;28;20411;-84
2021/03/08 06:17:00;;;;;;;12.50;4.05;;;;;;;6.49;58.23;100436.53;5037008;28;20049;-84
2021/03/08 06:19:29;;;;;;;14.43;5.30;;;;;;;6.47;58.71;100435.75;5018791;28;20046;-84
2021/03/08 06:21:57;;;;;;;12.65;4.32;;;;;;;6.48;58.33;100440.94;5019600;28;20084;-83
2021/03/08 06:24:24;;;;;;;14.45;4.57;;;;;;;6.50;58.29;100441.72;5020278;28;20045;-84
2021/03/08 06:26:51;;;;;;;12.27;4.07;;;;;;;6.50;58.37;100443.47;5017099;28;20050;-84
2021/03/08 06:29:18;;;;;;;12.70;4.95;;;;;;;6.50;58.63;100449.56;5017381;28;20049;-84
2021/03/08 06:31:45;;;;;;;14.27;4.90;;;;;;;6.52;58.43;100452.16;5017001;28;20511;-84
2021/03/08 06:34:11;;;;;;;12.18;4.20;;;;;;;6.53;58.51;100456.47;5016929;28;20056;-83
2021/03/08 06:36:38;;;;;;;12.27;4.32;;;;;;;6.54;58.48;100450.34;5031392;28;20056;-83
2021/03/08 06:39:05;;;;;;;12.15;4.43;;;;;;;6.54;58.34;100450.34;5016995;28;20451;-84
2021/03/08 06:41:33;;;;;;;9.50;4.38;;;;;;;6.54;58.63;100452.94;4999309;28;20050;-84
2021/03/08 06:44:01;;;;;;;12.68;4.65;;;;;;;6.55;58.94;100461.66;5016862;28;20046;-83
2021/03/08 06:46:28;;;;;;;14.25;4.55;;;;;;;6.56;58.74;100451.16;5033924;28;20534;-84
2021/03/08 06:48:54;;;;;;;14.50;4.90;;;;;;;6.57;58.41;100452.00;5036459;28;20132;-84
2021/03/08 06:51:21;;;;;;;17.30;4.90;;;;;;;6.57;58.77;100458.09;5018693;28;20396;-83
2021/03/08 06:53:47;;;;;;;13.55;4.20;;;;;;;6.58;58.43;100461.59;5036075;28;20045;-82
2021/03/08 06:56:18;;;;;;;12.27;4.25;;;;;;;6.59;58.69;100450.22;5036613;28;20056;-83
2021/03/08 06:59:04;;;;;;;10.48;4.35;;;;;;;6.58;59.68;100461.59;5010490;28;20049;-83
2021/03/08 07:01:32;;;;;;;12.07;3.92;;;;;;;6.62;58.45;100469.28;5000979;28;20046;-83
2021/03/08 07:04:18;;;;;;;16.80;5.18;;;;;;;6.63;59.43;100467.53;5086743;22;20041;-85
2021/03/08 07:07:06;;;;;;;13.77;4.18;;;;;;;6.64;59.55;100470.09;5055346;28;20525;-85
2021/03/08 07:09:34;;;;;;;16.05;4.90;;;;;;;6.69;58.49;100464.72;5056386;28;20110;-85
2021/03/08 07:12:11;;;;;;;10.02;4.30;;;;;;;6.67;59.27;100465.69;5054746;28;20049;-85
2021/03/08 07:14:39;;;;;;;16.52;4.88;;;;;;;6.68;58.52;100476.09;5055985;28;20556;-85
2021/03/08 07:17:32;;;;;;;14.15;4.75;;;;;;;6.67;59.33;100473.53;5053825;28;20059;-85
2021/03/08 07:20:07;;;;;;;10.40;4.95;;;;;;;6.71;58.53;100476.00;5030802;28;20053;-85
2021/03/08 07:22:39;;;;;;;10.70;4.72;;;;;;;6.71;58.96;100483.00;5036250;28;20049;-85
2021/03/08 07:25:07;;;;;;;15.60;5.50;;;;;;;6.72;58.36;100488.19;5034889;28;20045;-84
2021/03/08 07:27:44;;;;;;;14.55;4.85;;;;;;;6.70;59.22;100491.75;5035140;28;20049;-84
2021/03/08 07:30:12;;;;;;;15.82;5.07;;;;;;;6.72;58.38;100485.56;5034788;28;20488;-84
2021/03/08 07:32:39;;;;;;;11.75;4.32;;;;;;;6.71;58.23;100491.72;5034929;28;20060;-85
2021/03/08 07:35:08;;;;;;;14.10;5.63;;;;;;;6.71;58.64;100496.09;5034717;28;20061;-85
2021/03/08 07:37:45;;;;;;;16.92;5.22;;;;;;;6.68;59.05;100491.78;5034448;28;20046;-85
2021/03/08 07:40:30;;;;;;;14.52;5.13;;;;;;;6.68;59.05;100481.31;5052793;28;20048;-85
2021/03/08 07:42:56;;;;;;;16.58;5.45;;;;;;;6.72;58.43;100493.44;5055186;28;20492;-86
2021/03/08 07:45:39;;;;;;;14.90;4.97;;;;;;;6.71;59.38;100490.84;5054355;28;20388;-85
2021/03/08 07:48:13;;;;;;;11.80;5.38;;;;;;;6.75;59.30;100495.09;5051898;28;20037;-85
2021/03/08 07:50:40;;;;;;;12.20;5.40;;;;;;;6.81;59.01;100500.16;5034633;28;20100;-85
2021/03/08 07:53:28;;;;;;;12.07;5.30;;;;;;;6.81;59.59;100500.16;5041392;28;20064;-85
2021/03/08 07:56:00;;;;;;;18.02;5.93;;;;;;;6.87;59.38;100492.13;5047792;28;20054;-85
2021/03/08 07:58:29;;;;;;;12.93;5.82;;;;;;;6.93;59.03;100492.84;5055571;28;20053;-85
2021/03/08 08:00:57;;;;;;;15.18;6.93;;;;;;;6.97;58.79;100489.22;5054250;28;20053;-86
2021/03/08 08:03:25;;;;;;;16.55;6.40;;;;;;;7.01;58.27;100490.84;5054753;28;20049;-85
2021/03/08 08:05:54;;;;;;;14.68;5.82;;;;;;;7.01;58.29;100489.09;5054950;28;20059;-85
2021/03/08 08:08:21;;;;;;;16.67;5.93;;;;;;;7.01;58.46;100486.47;5050119;28;20495;-85
2021/03/08 08:10:53;;;;;;;17.02;6.68;;;;;;;7.01;59.03;100499.56;5055097;28;20045;-85
2021/03/08 08:14:02;;;;;;;14.77;6.30;;;;;;;7.00;59.34;100495.22;5054726;28;20052;-86
2021/03/08 08:16:29;;;;;;;13.05;5.75;;;;;;;7.08;58.75;100491.50;5052439;28;20061;-85
2021/03/08 08:19:04;;;;;;;15.73;5.72;;;;;;;7.10;59.20;100495.78;5051832;28;20044;-85
2021/03/08 08:21:36;;;;;;;16.35;5.90;;;;;;;7.17;59.39;100497.34;5053001;28;20503;-85
2021/03/08 08:24:08;;;;;;;14.43;5.13;;;;;;;7.26;59.33;100505.81;5052935;28;20053;-85
2021/03/08 08:26:35;;;;;;;14.68;5.70;;;;;;;7.34;58.71;100503.81;5033244;28;20054;-85
2021/03/08 08:29:02;;;;;;;13.75;6.03;;;;;;;7.40;58.80;100500.97;5033862;28;20119;-85
2021/03/08 08:31:57;;;;;;;18.52;6.05;;;;;;;7.46;59.25;100502.56;5035016;28;20427;-86
2021/03/08 08:34:48;;;;;;;19.90;6.05;;;;;;;7.57;58.69;100504.81;5034836;28;20099;-85
2021/03/08 08:37:18;;;;;;;12.07;5.55;;;;;;;7.68;58.38;100507.09;5034818;28;20052;-85
2021/03/08 08:40:04;;;;;;;15.98;5.38;;;;;;;7.73;57.80;100507.78;5034713;28;20484;-85
2021/03/08 08:42:32;;;;;;;12.77;4.72;;;;;;;7.84;57.67;100512.69;5042615;28;20053;-85
2021/03/08 08:45:00;;;;;;;15.77;5.68;;;;;;;7.88;57.34;100508.19;5037894;28;20057;-85
2021/03/08 08:47:29;;;;;;;11.82;4.82;;;;;;;7.90;57.04;100509.00;5033598;28;20057;-85
2021/03/08 08:49:59;;;;;;;17.45;5.20;;;;;;;7.94;57.01;100515.84;5033266;28;20080;-85
2021/03/08 08:52:44;;;;;;;13.25;4.75;;;;;;;7.91;56.38;100508.97;5034333;28;20071;-85
2021/03/08 08:55:11;;;;;;;13.32;4.97;;;;;;;7.97;56.88;100510.53;5034385;28;20052;-85
2021/03/08 08:57:38;;;;;;;17.02;5.03;;;;;;;7.97;56.14;100504.41;5047113;28;20045;-85
2021/03/08 09:00:17;;;;;;;14.35;4.90;;;;;;;7.95;56.48;100509.69;5054520;28;20076;-86
2021/03/08 09:02:44;;;;;;;14.52;5.05;;;;;;;8.00;56.73;100506.94;5054277;28;20061;-85
2021/03/08 09:05:28;;;;;;;15.00;5.63;;;;;;;7.98;57.15;100511.34;5053454;28;20521;-85
2021/03/08 09:08:22;;;;;;;12.25;4.53;;;;;;;8.02;56.77;100505.97;5054196;28;20045;-85
2021/03/08 09:10:49;;;;;;;12.15;5.00;;;;;;;8.12;56.43;100509.13;5044051;28;20053;-85
2021/03/08 09:13:15;;;;;;;10.80;5.00;;;;;;;8.19;56.36;100502.75;5033972;28;20060;-85
2021/03/08 09:15:41;;;;;;;11.15;4.38;;;;;;;8.24;55.81;100502.59;5034023;28;20049;-84
2021/03/08 09:18:09;;;;;;;14.27;4.30;;;;;;;8.28;55.21;100498.09;5034161;28;20053;-84
2021/03/08 09:20:36;;;;;;;10.90;3.95;;;;;;;8.31;54.80;100498.00;5032977;28;20045;-85
2021/03/08 09:23:19;;;;;;;11.43;4.03;;;;;;;8.32;55.13;100505.81;5032387;28;20510;-85
2021/03/08 09:25:54;;;;;;;17.00;4.97;;;;;;;8.34;54.75;100500.50;5052028;28;20518;-85
2021/03/08 09:28:21;;;;;;;12.18;4.53;;;;;;;8.42;54.80;100505.47;5052645;28;20051;-85
2021/03/08 09:30:48;;;;;;;9.27;3.88;;;;;;;8.47;55.22;100506.16;5053288;28;20048;-85
2021/03/08 09:33:16;;;;;;;12.52;3.88;;;;;;;8.54;55.17;100501.59;5052743;28;20052;-85
2021/03/08 09:35:49;;;;;;;11.27;3.72;;;;;;;8.61;54.55;100503.06;5052029;28;20049;-85
2021/03/08 09:38:20;;;;;;;6.80;2.78;;;;;;;8.69;54.10;100508.91;5052453;28;20053;-85
2021/03/08 09:40:55;;;;;;;9.60;3.95;;;;;;;8.79;54.00;100509.41;5037580;28;20061;-85
2021/03/08 09:43:25;;;;;;;8.00;3.63;;;;;;;8.90;54.47;100503.75;5033626;28;20050;-85
2021/03/08 09:46:07;;;;;;;8.02;3.78;;;;;;;8.97;53.65;100493.88;5049446;28;20053;-85
2021/03/08 09:48:37;;;;;;;9.77;3.83;;;;;;;9.10;54.40;100502.13;5035257;28;20057;-85
2021/03/08 09:51:15;;;;;;;7.85;3.80;;;;;;;9.17;54.06;100511.50;5032130;28;20056;-85
2021/03/08 09:53:47;;;;;;;10.32;3.55;;;;;;;9.30;53.00;100516.28;5032162;28;20053;-87
2021/03/08 09:56:16;;;;;;;8.95;3.90;;;;;;;9.39;53.09;100521.16;5033545;28;20099;-85
2021/03/08 09:58:42;;;;;;;6.75;3.10;;;;;;;9.50;52.90;100513.69;5034407;28;20514;-85
2021/03/08 10:01:14;;;;;;;7.78;3.08;;;;;;;9.58;51.67;100517.78;5033464;28;20053;-85
2021/03/08 10:03:45;;;;;;;7.57;2.85;;;;;;;9.69;52.72;100517.34;5031958;28;20107;-85
2021/03/08 10:06:29;;;;;;;11.07;3.60;;;;;;;9.74;51.74;100510.97;5033726;28;20511;-85
2021/03/08 10:08:55;;;;;;;;;;;;;;;9.86;52.82;100512.25;5032407;28;20133;-85
2021/03/08 10:11:28;;;;;;;9.02;3.50;;;;;;;10.00;52.09;100505.53;5032195;28;19928;-85
2021/03/08 10:13:57;;;;;;;7.88;3.10;;;;;;;10.09;52.12;100502.50;5032552;28;20049;-85
2021/03/08 10:16:27;;;;;;;12.02;3.30;;;;;;;10.17;51.02;100510.09;5033256;28;20053;-85
2021/03/08 10:19:06;;;;;;;6.55;3.28;;;;;;;10.27;51.68;100514.03;5048037;28;20381;-85
2021/03/08 10:21:43;;;;;;;9.40;3.05;;;;;;;10.36;49.98;100504.00;5052147;28;20480;-85
2021/03/08 10:24:09;;;;;;;8.23;3.85;;;;;;;10.50;51.09;100513.97;5052544;28;20503;-85
2021/03/08 10:26:43;;;;;;;8.10;3.40;;;;;;;10.57;50.47;100504.03;5047173;28;20056;-85
2021/03/08 10:29:10;;;;;;;8.27;3.90;;;;;;;10.71;51.91;100506.88;5032312;28;20045;-85
2021/03/08 10:31:36;;;;;;;12.13;3.80;;;;;;;10.84;51.98;100509.78;5031988;28;20056;-85
2021/03/08 10:34:10;;;;;;;8.60;3.22;;;;;;;10.96;50.23;100508.38;5033133;28;20057;-85
2021/03/08 10:36:38;;;;;;;8.52;3.08;;;;;;;11.08;49.67;100505.19;5031978;28;20072;-85
2021/03/08 10:39:07;;;;;;;9.10;3.13;;;;;;;11.16;49.70;100507.44;5033163;28;20407;-85
2021/03/08 10:41:36;;;;;;;10.93;3.00;;;;;;;11.21;49.20;100504.56;5047029;28;20052;-85
2021/03/08 10:44:05;;;;;;;7.03;2.63;;;;;;;11.28;49.22;100506.00;5052569;28;20052;-85
2021/03/08 10:46:37;;;;;;;9.73;3.00;;;;;;;11.32;48.24;100499.66;5055261;28;20045;-85
2021/03/08 10:49:06;;;;;;;8.95;3.30;;;;;;;11.39;48.70;100502.84;5055855;28;20045;-85
2021/03/08 10:51:33;;;;;;;6.80;3.15;;;;;;;11.43;48.25;100503.53;5055227;28;20513;-85
2021/03/08 10:54:03;;;;;;;13.98;3.42;;;;;;;11.44;48.16;100497.38;5056325;28;20059;-85
2021/03/08 10:56:33;;;;;;;6.97;3.55;;;;;;;11.46;47.97;100500.75;5053531;28;20487;-85
2021/03/08 10:59:00;;;;;;;8.20;3.08;;;;;;;11.53;48.43;100502.19;5035905;28;20132;-85
2021/03/08 11:01:29;;;;;;;8.77;3.10;;;;;;;11.58;48.35;100492.25;5016641;28;20496;-85
2021/03/08 11:03:56;;;;;;;12.00;3.17;;;;;;;11.71;48.55;100491.66;5023784;28;20385;-85
2021/03/08 11:06:24;;;;;;;6.85;2.90;;;;;;;11.79;47.55;100494.75;5056143;28;20056;-84
2021/03/08 11:08:57;;;;;;;9.63;2.92;;;;;;;11.85;46.39;100489.16;5052615;28;20068;-84
2021/03/08 11:11:28;;;;;;;6.65;2.67;;;;;;;11.95;45.89;100491.31;5056259;28;20059;-85
2021/03/08 11:14:05;;;;;;;7.80;3.30;;;;;;;11.98;45.38;100488.53;5055998;28;20135;-84
2021/03/08 11:16:32;;;;;;;9.57;3.47;;;;;;;12.04;46.27;100488.22;5056100;28;20061;-84
2021/03/08 11:19:18;;;;;;;13.43;4.15;;;;;;;11.96;45.52;100490.41;5038563;28;20100;-84
2021/03/08 11:21:45;;;;;;;7.65;3.67;;;;;;;11.93;46.10;100494.03;5035277;28;20050;-85
2021/03/08 11:24:19;;;;;;;6.03;2.90;;;;;;;11.83;45.50;100501.59;5036130;28;20056;-84
2021/03/08 11:27:11;;;;;;;10.20;3.03;;;;;;;11.75;45.14;100492.34;5035074;28;20053;-85
2021/03/08 11:29:41;;;;;;;9.73;3.20;;;;;;;11.80;46.37;100491.19;5034873;28;20056;-86
2021/03/08 11:32:09;;;;;;;10.73;2.92;;;;;;;11.90;47.04;100496.00;5034651;28;20049;-86
2021/03/08 11:34:42;;;;;;;7.47;3.47;;;;;;;12.07;47.10;100489.91;5036819;28;20450;-86
2021/03/08 11:37:15;;;;;;;7.80;3.20;;;;;;;12.29;45.42;100497.53;5035886;28;20056;-86
2021/03/08 11:39:45;;;;;;;10.07;3.85;;;;;;;12.49;45.92;100487.72;5035804;28;20045;-86